createdAt,value
2023-02-16T00:01:09.112Z,95860.66
2023-02-16T00:03:19.624Z,95854.56
2023-02-16T00:05:33.072Z,95864.59
2023-02-16T00:07:34.713Z,95864.03
2023-02-16T00:09:36.459Z,95866.53
2023-02-16T00:11:56.757Z,95864.25
2023-02-16T00:13:58.424Z,95862.59
2023-02-16T00:16:03.145Z,95869.34
2023-02-16T00:18:15.107Z,95863.34
2023-02-16T00:20:17.490Z,95857.44
2023-02-16T00:22:31.319Z,95858.19
2023-02-16T00:24:42.174Z,95855.09
2023-02-16T00:26:44.667Z,95864.41
2023-02-16T00:28:46.350Z,95858.47
2023-02-16T00:30:50.217Z,95859.94
2023-02-16T00:32:51.720Z,95863.34
2023-02-16T00:34:53.323Z,95862.78
2023-02-16T00:36:55.988Z,95864.47
2023-02-16T00:38:57.591Z,95863.34
2023-02-16T00:40:59.239Z,95860.50
2023-02-16T00:43:01.133Z,95854.25
2023-02-16T00:45:02.864Z,95854.41
2023-02-16T00:47:14.296Z,95859.31
2023-02-16T00:49:17.639Z,95863.59
2023-02-16T00:51:25.759Z,95860.50
2023-02-16T00:53:27.919Z,95861.22
2023-02-16T00:55:32.179Z,95866.38
2023-02-16T00:57:48.085Z,95863.03
2023-02-16T00:59:54.978Z,95855.34
2023-02-16T01:01:57.636Z,95858.22
2023-02-16T01:04:01.742Z,95852.53
2023-02-16T01:06:22.003Z,95855.44
2023-02-16T01:08:42.378Z,95852.31
2023-02-16T01:11:03.108Z,95858.31
2023-02-16T01:13:05.167Z,95851.44
2023-02-16T01:15:14.385Z,95856.06
2023-02-16T01:17:15.940Z,95848.44
2023-02-16T01:19:17.875Z,95851.44
2023-02-16T01:21:19.863Z,95852.09
2023-02-16T01:23:21.562Z,95845.06
2023-02-16T01:25:26.811Z,95842.69
2023-02-16T01:27:28.420Z,95841.75
2023-02-16T01:29:30.099Z,95831.53
2023-02-16T01:31:31.799Z,95825.50
2023-02-16T01:33:33.474Z,95825.25
2023-02-16T01:35:35.155Z,95825.56
2023-02-16T01:37:36.779Z,95830.53
2023-02-16T01:39:38.433Z,95826.56
2023-02-16T01:42:10.357Z,95825.69
2023-02-16T01:44:15.557Z,95826.50
2023-02-16T01:46:21.434Z,95823.75
2023-02-16T01:48:27.283Z,95832.91
2023-02-16T01:50:42.352Z,95824.75
2023-02-16T01:52:51.943Z,95821.56
2023-02-16T01:55:14.965Z,95824.03
2023-02-16T01:57:19.385Z,95818.16
2023-02-16T01:59:30.671Z,95816.75
2023-02-16T02:01:38.550Z,95816.69
2023-02-16T02:03:58.876Z,95818.59
2023-02-16T02:06:00.504Z,95819.66
2023-02-16T02:08:27.465Z,95812.13
2023-02-16T02:10:55.213Z,95815.09
2023-02-16T02:13:07.800Z,95816.41
2023-02-16T02:15:10.479Z,95818.97
2023-02-16T02:17:16.611Z,95813.59
2023-02-16T02:19:18.202Z,95817.28
2023-02-16T02:21:59.409Z,95812.91
2023-02-16T02:24:42.985Z,95811.78
2023-02-16T02:26:47.645Z,95812.50
2023-02-16T02:29:08.114Z,95815.56
2023-02-16T02:31:27.589Z,95814.88
2023-02-16T02:33:48.905Z,95805.25
2023-02-16T02:36:10.789Z,95808.28
2023-02-16T02:38:24.599Z,95806.72
2023-02-16T02:40:56.899Z,95803.63
2023-02-16T02:43:22.755Z,95808.59
2023-02-16T02:45:28.743Z,95804.97
2023-02-16T02:47:38.476Z,95802.38
2023-02-16T02:49:53.740Z,95803.97
2023-02-16T02:51:55.425Z,95803.97
2023-02-16T02:54:35.858Z,95805.31
2023-02-16T02:56:56.730Z,95816.94
2023-02-16T02:59:19.864Z,95819.22
2023-02-16T03:01:22.117Z,95821.91
2023-02-16T03:03:33.392Z,95821.00
2023-02-16T03:05:36.285Z,95821.91
2023-02-16T03:07:47.429Z,95825.06
2023-02-16T03:10:09.032Z,95825.19
2023-02-16T03:12:30.898Z,95823.88
2023-02-16T03:14:34.606Z,95817.88
2023-02-16T03:16:42.471Z,95819.25
2023-02-16T03:19:03.275Z,95821.63
2023-02-16T03:21:23.467Z,95815.44
2023-02-16T03:23:43.917Z,95810.44
2023-02-16T03:26:16.310Z,95813.13
2023-02-16T03:28:38.757Z,95802.25
2023-02-16T03:30:42.218Z,95808.91
2023-02-16T03:32:44.893Z,95808.13
2023-02-16T03:34:46.677Z,95805.69
2023-02-16T03:36:59.060Z,95806.56
2023-02-16T03:39:01.004Z,95808.50
2023-02-16T03:41:02.800Z,95803.50
2023-02-16T03:43:06.867Z,95802.16
2023-02-16T03:45:08.618Z,95805.78
2023-02-16T03:47:11.040Z,95807.16
2023-02-16T03:49:13.028Z,95810.41
2023-02-16T03:51:14.852Z,95810.47
2023-02-16T03:53:18.297Z,95815.38
2023-02-16T03:55:19.980Z,95813.44
2023-02-16T03:57:21.600Z,95802.19
2023-02-16T03:59:23.222Z,95805.00
2023-02-16T04:01:25.071Z,95805.94
2023-02-16T04:03:27.381Z,95811.09
2023-02-16T04:05:29.145Z,95811.69
2023-02-16T04:07:31.929Z,95803.19
2023-02-16T04:09:33.499Z,95798.81
2023-02-16T04:11:53.451Z,95803.47
2023-02-16T04:13:55.009Z,95796.50
2023-02-16T04:15:56.611Z,95803.03
2023-02-16T04:18:02.040Z,95795.72
2023-02-16T04:20:13.770Z,95791.19
2023-02-16T04:22:15.626Z,95792.94
2023-02-16T04:24:17.218Z,95795.53
2023-02-16T04:26:18.806Z,95791.78
2023-02-16T04:28:20.471Z,95791.28
2023-02-16T04:30:25.369Z,95790.91
2023-02-16T04:32:27.104Z,95788.66
2023-02-16T04:34:28.757Z,95791.44
2023-02-16T04:36:31.700Z,95791.00
2023-02-16T04:38:33.325Z,95793.75
2023-02-16T04:40:34.912Z,95787.91
2023-02-16T04:42:36.582Z,95796.81
2023-02-16T04:44:38.235Z,95794.63
2023-02-16T04:46:39.856Z,95803.09
2023-02-16T04:48:41.453Z,95795.66
2023-02-16T04:50:43.311Z,95799.16
2023-02-16T04:52:44.964Z,95807.09
2023-02-16T04:54:46.569Z,95808.09
2023-02-16T04:56:48.372Z,95808.13
2023-02-16T04:59:02.235Z,95802.91
2023-02-16T05:01:04.277Z,95813.78
2023-02-16T05:03:06.156Z,95805.56
2023-02-16T05:05:08.267Z,95810.16
2023-02-16T05:07:09.873Z,95804.84
2023-02-16T05:09:11.572Z,95814.41
2023-02-16T05:11:32.057Z,95813.69
2023-02-16T05:13:51.985Z,95821.16
2023-02-16T05:15:53.652Z,95827.28
2023-02-16T05:17:55.243Z,95822.91
2023-02-16T05:19:59.352Z,95824.91
2023-02-16T05:22:01.037Z,95814.03
2023-02-16T05:24:10.872Z,95822.59
2023-02-16T05:26:12.511Z,95821.63
2023-02-16T05:28:14.217Z,95820.47
2023-02-16T05:30:15.903Z,95818.53
2023-02-16T05:32:18.300Z,95815.31
2023-02-16T05:34:20.039Z,95825.47
2023-02-16T05:36:22.253Z,95825.22
2023-02-16T05:38:23.896Z,95833.34
2023-02-16T05:40:25.538Z,95833.22
2023-02-16T05:42:29.930Z,95831.78
2023-02-16T05:44:31.540Z,95831.19
2023-02-16T05:46:35.347Z,95830.56
2023-02-16T05:48:36.895Z,95830.63
2023-02-16T05:50:38.459Z,95837.09
2023-02-16T05:52:40.088Z,95830.31
2023-02-16T05:54:41.799Z,95838.91
2023-02-16T05:56:48.709Z,95831.09
2023-02-16T05:58:50.805Z,95838.09
2023-02-16T06:00:53.529Z,95839.75
2023-02-16T06:02:55.187Z,95837.31
2023-02-16T06:04:56.787Z,95836.41
2023-02-16T06:07:01.747Z,95845.25
2023-02-16T06:09:07.465Z,95852.63
2023-02-16T06:11:29.018Z,95856.66
2023-02-16T06:13:30.787Z,95857.03
2023-02-16T06:15:32.353Z,95862.31
2023-02-16T06:17:33.942Z,95856.75
2023-02-16T06:19:35.549Z,95862.19
2023-02-16T06:21:37.792Z,95857.81
2023-02-16T06:23:39.424Z,95866.22
2023-02-16T06:25:53.235Z,95865.78
2023-02-16T06:27:57.043Z,95868.28
2023-02-16T06:29:58.690Z,95865.22
2023-02-16T06:32:00.533Z,95868.34
2023-02-16T06:34:05.781Z,95879.97
2023-02-16T06:36:07.932Z,95866.47
2023-02-16T06:38:09.520Z,95874.47
2023-02-16T06:40:14.287Z,95873.91
2023-02-16T06:42:15.974Z,95868.34
2023-02-16T06:44:17.801Z,95870.50
2023-02-16T06:46:19.463Z,95866.19
2023-02-16T06:48:21.108Z,95879.59
2023-02-16T06:50:22.741Z,95877.16
2023-02-16T06:52:37.696Z,95875.72
2023-02-16T06:54:39.300Z,95876.97
2023-02-16T06:56:41.022Z,95873.00
2023-02-16T06:58:42.665Z,95873.06
2023-02-16T07:00:44.261Z,95869.28
2023-02-16T07:02:46.787Z,95872.69
2023-02-16T07:04:48.454Z,95868.34
2023-02-16T07:06:53.272Z,95872.19
2023-02-16T07:08:54.997Z,95863.78
2023-02-16T07:10:56.731Z,95853.19
2023-02-16T07:12:58.349Z,95869.84
2023-02-16T07:15:00.373Z,95862.72
2023-02-16T07:17:04.736Z,95859.56
2023-02-16T07:19:07.020Z,95852.56
2023-02-16T07:21:08.654Z,95851.69
2023-02-16T07:23:10.320Z,95848.44
2023-02-16T07:25:11.947Z,95840.41
2023-02-16T07:27:13.527Z,95840.50
2023-02-16T07:29:24.303Z,95840.44
2023-02-16T07:31:26.457Z,95840.16
2023-02-16T07:33:28.141Z,95836.28
2023-02-16T07:35:29.784Z,95844.38
2023-02-16T07:37:31.369Z,95845.75
2023-02-16T07:39:33.044Z,95834.56
2023-02-16T07:41:34.643Z,95836.47
2023-02-16T07:43:36.694Z,95839.47
2023-02-16T07:45:42.413Z,95836.81
2023-02-16T07:47:44.058Z,95836.81
2023-02-16T07:49:45.787Z,95840.25
2023-02-16T07:51:47.345Z,95838.81
2023-02-16T07:53:48.963Z,95836.72
2023-02-16T07:55:50.542Z,95846.63
2023-02-16T07:58:07.998Z,95847.94
2023-02-16T08:00:12.906Z,95844.28
2023-02-16T08:02:18.050Z,95842.63
2023-02-16T08:04:19.792Z,95851.19
2023-02-16T08:06:21.583Z,95842.53
2023-02-16T08:08:23.207Z,95845.81
2023-02-16T08:10:25.323Z,95848.59
2023-02-16T08:12:26.980Z,95843.50
2023-02-16T08:14:28.619Z,95844.16
2023-02-16T08:16:30.242Z,95854.66
2023-02-16T08:18:31.907Z,95853.13
2023-02-16T08:20:57.317Z,95858.31
2023-02-16T08:22:55.074Z,95855.44
2023-02-16T08:24:56.663Z,95855.78
2023-02-16T08:26:58.318Z,95865.72
2023-02-16T08:29:00.105Z,95861.91
2023-02-16T08:31:06.542Z,95855.56
2023-02-16T08:33:08.162Z,95857.34
2023-02-16T08:35:10.192Z,95850.53
2023-02-16T08:37:14.431Z,95861.03
2023-02-16T08:39:18.182Z,95855.88
2023-02-16T08:41:21.434Z,95854.75
2023-02-16T08:43:26.278Z,95850.94
2023-02-16T08:45:28.058Z,95855.03
2023-02-16T08:47:29.752Z,95852.97
2023-02-16T08:49:31.632Z,95853.75
2023-02-16T08:51:36.673Z,95855.47
2023-02-16T08:53:38.740Z,95845.63
2023-02-16T08:55:40.493Z,95849.66
2023-02-16T08:57:42.081Z,95847.22
2023-02-16T08:59:43.704Z,95847.75
2023-02-16T09:01:45.672Z,95838.88
2023-02-16T09:03:47.354Z,95843.50
2023-02-16T09:05:50.459Z,95838.78
2023-02-16T09:07:53.912Z,95839.84
2023-02-16T09:09:55.739Z,95846.53
2023-02-16T09:11:58.212Z,95845.56
2023-02-16T09:13:59.851Z,95849.66
2023-02-16T09:16:04.567Z,95843.66
2023-02-16T09:18:07.378Z,95841.50
2023-02-16T09:20:09.880Z,95835.44
2023-02-16T09:22:12.144Z,95841.81
2023-02-16T09:24:13.852Z,95834.06
2023-02-16T09:26:17.033Z,95831.41
2023-02-16T09:28:18.628Z,95832.00
2023-02-16T09:30:21.016Z,95833.19
2023-02-16T09:32:23.203Z,95818.84
2023-02-16T09:34:26.854Z,95821.44
2023-02-16T09:36:29.636Z,95824.19
2023-02-16T09:38:31.214Z,95817.34
2023-02-16T09:40:32.855Z,95811.34
2023-02-16T09:42:51.660Z,95821.50
2023-02-16T09:45:14.513Z,95819.91
2023-02-16T09:47:24.319Z,95821.47
2023-02-16T09:49:37.206Z,95812.63
2023-02-16T09:51:44.566Z,95816.50
2023-02-16T09:53:47.939Z,95812.03
2023-02-16T09:56:16.884Z,95807.78
2023-02-16T09:58:23.178Z,95802.06
2023-02-16T10:00:33.511Z,95801.66
2023-02-16T10:02:42.197Z,95790.66
2023-02-16T10:04:54.731Z,95793.53
2023-02-16T10:07:02.009Z,95796.53
2023-02-16T10:09:08.270Z,95792.53
2023-02-16T10:11:48.858Z,95783.75
2023-02-16T10:13:54.343Z,95781.81
2023-02-16T10:15:57.910Z,95777.38
2023-02-16T10:18:07.487Z,95778.47
2023-02-16T10:20:34.468Z,95772.91
2023-02-16T10:22:44.354Z,95764.03
2023-02-16T10:25:00.218Z,95767.69
2023-02-16T10:27:08.442Z,95765.28
2023-02-16T10:29:15.978Z,95767.09
2023-02-16T10:31:58.390Z,95762.28
2023-02-16T10:34:14.497Z,95757.44
2023-02-16T10:36:22.151Z,95758.72
2023-02-16T10:38:35.847Z,95752.81
2023-02-16T10:40:44.214Z,95756.03
2023-02-16T10:43:05.867Z,95745.84
2023-02-16T10:45:10.512Z,95753.53
2023-02-16T10:47:24.310Z,95753.19
2023-02-16T10:49:27.115Z,95751.41
2023-02-16T10:51:34.263Z,95745.03
2023-02-16T10:53:44.885Z,95741.28
2023-02-16T10:55:46.965Z,95740.38
2023-02-16T10:57:56.043Z,95733.94
2023-02-16T10:59:59.937Z,95727.59
2023-02-16T11:02:01.754Z,95728.81
2023-02-16T11:04:03.922Z,95729.72
2023-02-16T11:06:23.113Z,95722.38
2023-02-16T11:08:25.835Z,95716.22
2023-02-16T11:10:50.636Z,95722.66
2023-02-16T11:12:57.916Z,95712.22
2023-02-16T11:15:23.980Z,95707.19
2023-02-16T11:17:26.423Z,95708.56
2023-02-16T11:19:28.927Z,95710.88
2023-02-16T11:21:49.318Z,95710.13
2023-02-16T11:24:02.271Z,95698.09
2023-02-16T11:26:11.924Z,95696.28
2023-02-16T11:28:32.968Z,95697.09
2023-02-16T11:30:36.792Z,95694.00
2023-02-16T11:32:38.274Z,95690.19
2023-02-16T11:34:44.682Z,95688.59
2023-02-16T11:36:47.348Z,95682.31
2023-02-16T11:39:01.744Z,95679.84
2023-02-16T11:41:06.336Z,95679.88
2023-02-16T11:43:17.432Z,95673.41
2023-02-16T11:45:39.309Z,95675.03
2023-02-16T11:47:42.137Z,95676.06
2023-02-16T11:49:43.720Z,95675.97
2023-02-16T11:51:45.455Z,95667.03
2023-02-16T11:54:03.731Z,95677.03
2023-02-16T11:56:27.572Z,95670.78
2023-02-16T11:58:29.477Z,95667.81
2023-02-16T12:00:31.812Z,95666.19
2023-02-16T12:02:42.815Z,95660.16
2023-02-16T12:04:59.745Z,95655.09
2023-02-16T12:07:38.436Z,95657.91
2023-02-16T12:10:01.234Z,95654.47
2023-02-16T12:12:32.176Z,95653.34
2023-02-16T12:14:41.917Z,95641.53
2023-02-16T12:16:49.580Z,95635.50
2023-02-16T12:19:09.737Z,95637.63
2023-02-16T12:21:34.820Z,95635.44
2023-02-16T12:23:59.396Z,95623.38
2023-02-16T12:26:39.039Z,95625.34
2023-02-16T12:28:53.146Z,95623.13
2023-02-16T12:31:25.209Z,95614.31
2023-02-16T12:33:49.477Z,95611.84
2023-02-16T12:36:25.267Z,95612.81
2023-02-16T12:38:46.568Z,95609.22
2023-02-16T12:41:11.434Z,95607.47
2023-02-16T12:43:43.224Z,95605.28
2023-02-16T12:45:48.725Z,95604.59
2023-02-16T12:47:55.143Z,95605.00
2023-02-16T12:50:01.207Z,95595.81
2023-02-16T12:52:11.945Z,95596.56
2023-02-16T12:54:37.388Z,95593.09
2023-02-16T12:56:50.296Z,95592.53
2023-02-16T12:58:58.122Z,95584.84
2023-02-16T13:01:16.104Z,95578.50
2023-02-16T13:03:23.709Z,95584.53
2023-02-16T13:05:30.851Z,95578.88
2023-02-16T13:07:50.271Z,95576.38
2023-02-16T13:10:12.535Z,95580.81
2023-02-16T13:12:36.667Z,95581.94
2023-02-16T13:14:42.321Z,95585.38
2023-02-16T13:16:56.749Z,95575.88
2023-02-16T13:18:58.766Z,95573.53
2023-02-16T13:21:09.140Z,95572.13
2023-02-16T13:23:35.262Z,95558.97
2023-02-16T13:25:56.961Z,95568.75
2023-02-16T13:27:58.625Z,95566.34
2023-02-16T13:30:15.965Z,95567.84
2023-02-16T13:32:38.081Z,95559.16
2023-02-16T13:35:01.625Z,95558.09
2023-02-16T13:37:26.479Z,95557.63
2023-02-16T13:40:16.327Z,95555.22
2023-02-16T13:42:33.952Z,95553.72
2023-02-16T13:44:37.354Z,95552.59
2023-02-16T13:46:53.920Z,95553.22
2023-02-16T13:48:55.876Z,95553.22
2023-02-16T13:51:18.758Z,95547.03
2023-02-16T13:53:21.658Z,95551.31
2023-02-16T13:55:30.173Z,95556.41
2023-02-16T13:57:50.464Z,95547.81
2023-02-16T14:00:06.071Z,95539.94
2023-02-16T14:02:12.828Z,95558.31
2023-02-16T14:04:23.224Z,95546.69
2023-02-16T14:06:32.435Z,95539.03
2023-02-16T14:08:34.023Z,95536.41
2023-02-16T14:11:08.921Z,95536.72
2023-02-16T14:13:13.707Z,95544.97
2023-02-16T14:15:20.538Z,95540.50
2023-02-16T14:17:22.472Z,95533.28
2023-02-16T14:19:26.488Z,95537.63
2023-02-16T14:21:37.904Z,95535.59
2023-02-16T14:23:39.673Z,95534.25
2023-02-16T14:25:41.390Z,95535.97
2023-02-16T14:27:56.393Z,95539.66
2023-02-16T14:30:02.379Z,95536.16
2023-02-16T14:32:23.490Z,95536.53
2023-02-16T14:34:33.349Z,95535.38
2023-02-16T14:36:36.015Z,95530.22
2023-02-16T14:38:40.662Z,95531.13
2023-02-16T14:40:52.519Z,95528.41
2023-02-16T14:42:57.360Z,95536.53
2023-02-16T14:45:37.746Z,95528.34
2023-02-16T14:48:13.443Z,95537.78
2023-02-16T14:50:24.152Z,95534.66
2023-02-16T14:52:45.924Z,95520.31
2023-02-16T14:55:09.395Z,95523.84
2023-02-16T14:57:22.266Z,95527.31
2023-02-16T14:59:38.555Z,95521.97
2023-02-16T15:01:42.081Z,95524.78
2023-02-16T15:03:45.416Z,95523.88
2023-02-16T15:06:06.422Z,95525.78
2023-02-16T15:08:17.190Z,95526.69
2023-02-16T15:10:26.859Z,95523.25
2023-02-16T15:12:30.809Z,95525.94
2023-02-16T15:14:45.553Z,95520.00
2023-02-16T15:16:48.323Z,95527.59
2023-02-16T15:18:52.234Z,95530.31
2023-02-16T15:20:55.941Z,95533.53
2023-02-16T15:23:03.059Z,95530.81
2023-02-16T15:25:24.408Z,95526.72
2023-02-16T15:27:26.579Z,95522.97
2023-02-16T15:29:29.439Z,95532.22
2023-02-16T15:31:37.052Z,95525.00
2023-02-16T15:33:41.620Z,95527.81
2023-02-16T15:35:46.774Z,95528.91
2023-02-16T15:37:48.630Z,95524.94
2023-02-16T15:40:12.126Z,95533.28
2023-02-16T15:42:14.291Z,95529.69
2023-02-16T15:44:36.443Z,95530.13
2023-02-16T15:46:40.374Z,95529.63
2023-02-16T15:48:42.012Z,95526.59
2023-02-16T15:50:45.117Z,95524.94
2023-02-16T15:52:47.946Z,95532.84
2023-02-16T15:54:50.222Z,95526.22
2023-02-16T15:56:53.578Z,95526.09
2023-02-16T15:58:56.884Z,95524.41
2023-02-16T16:00:58.605Z,95519.72
2023-02-16T16:03:01.240Z,95526.38
2023-02-16T16:05:06.486Z,95527.44
2023-02-16T16:07:15.415Z,95529.38
2023-02-16T16:09:25.851Z,95530.66
2023-02-16T16:11:27.663Z,95527.19
2023-02-16T16:13:30.469Z,95533.19
2023-02-16T16:15:36.088Z,95526.88
2023-02-16T16:17:39.627Z,95528.22
2023-02-16T16:19:41.271Z,95532.50
2023-02-16T16:21:54.557Z,95531.00
2023-02-16T16:24:01.970Z,95531.94
2023-02-16T16:26:16.947Z,95527.94
2023-02-16T16:28:27.709Z,95531.78
2023-02-16T16:30:31.661Z,95531.25
2023-02-16T16:32:33.900Z,95527.94
2023-02-16T16:34:40.563Z,95534.00
2023-02-16T16:36:52.422Z,95529.28
2023-02-16T16:39:34.972Z,95534.81
2023-02-16T16:41:36.571Z,95534.25
2023-02-16T16:43:47.240Z,95536.97
2023-02-16T16:45:54.810Z,95538.91
2023-02-16T16:47:56.439Z,95532.72
2023-02-16T16:50:14.525Z,95536.97
2023-02-16T16:52:36.209Z,95533.66
2023-02-16T16:54:39.774Z,95539.56
2023-02-16T16:56:41.989Z,95540.41
2023-02-16T16:58:43.932Z,95537.78
2023-02-16T17:00:45.597Z,95539.00
2023-02-16T17:02:47.294Z,95536.66
2023-02-16T17:04:48.878Z,95540.81
2023-02-16T17:06:50.535Z,95544.75
2023-02-16T17:08:52.376Z,95543.75
2023-02-16T17:10:54.044Z,95541.78
2023-02-16T17:12:58.675Z,95546.34
2023-02-16T17:15:01.476Z,95548.69
2023-02-16T17:17:03.129Z,95546.56
2023-02-16T17:19:04.809Z,95543.25
2023-02-16T17:21:06.565Z,95550.28
2023-02-16T17:23:14.028Z,95543.97
2023-02-16T17:25:15.741Z,95546.13
2023-02-16T17:27:17.403Z,95548.47
2023-02-16T17:29:19.048Z,95541.63
2023-02-16T17:31:20.854Z,95539.16
2023-02-16T17:33:22.572Z,95549.97
2023-02-16T17:35:24.188Z,95552.00
2023-02-16T17:37:26.141Z,95548.16
2023-02-16T17:39:27.747Z,95555.22
2023-02-16T17:41:29.912Z,95546.59
2023-02-16T17:43:31.643Z,95553.06
2023-02-16T17:45:33.249Z,95554.41
2023-02-16T17:47:35.095Z,95548.69
2023-02-16T17:49:36.731Z,95556.06
2023-02-16T17:51:39.015Z,95546.44
2023-02-16T17:53:41.234Z,95549.53
2023-02-16T17:55:44.056Z,95551.31
2023-02-16T17:57:45.621Z,95546.56
2023-02-16T17:59:47.366Z,95554.56
2023-02-16T18:01:48.970Z,95552.66
2023-02-16T18:03:50.778Z,95551.28
2023-02-16T18:05:52.553Z,95559.81
2023-02-16T18:07:54.201Z,95559.34
2023-02-16T18:09:55.905Z,95544.16
2023-02-16T18:11:57.543Z,95552.69
2023-02-16T18:13:59.152Z,95560.16
2023-02-16T18:16:03.844Z,95553.19
2023-02-16T18:18:06.641Z,95552.97
2023-02-16T18:20:10.314Z,95562.47
2023-02-16T18:22:12.870Z,95568.88
2023-02-16T18:24:14.523Z,95554.44
2023-02-16T18:26:16.660Z,95562.28
2023-02-16T18:28:20.019Z,95568.91
2023-02-16T18:30:22.380Z,95559.88
2023-02-16T18:32:24.149Z,95566.06
2023-02-16T18:34:26.389Z,95568.28
2023-02-16T18:36:28.065Z,95557.53
2023-02-16T18:38:29.666Z,95557.63
2023-02-16T18:40:31.348Z,95565.66
2023-02-16T18:42:33.200Z,95555.94
2023-02-16T18:44:34.863Z,95554.88
2023-02-16T18:46:36.470Z,95562.72
2023-02-16T18:48:38.078Z,95561.38
2023-02-16T18:50:42.546Z,95571.38
2023-02-16T18:52:45.088Z,95568.53
2023-02-16T18:54:46.737Z,95560.81
2023-02-16T18:56:48.298Z,95564.72
2023-02-16T18:58:49.891Z,95572.94
2023-02-16T19:00:51.614Z,95566.06
2023-02-16T19:02:55.354Z,95579.09
2023-02-16T19:04:56.967Z,95582.91
2023-02-16T19:06:58.748Z,95574.00
2023-02-16T19:09:00.495Z,95562.50
2023-02-16T19:11:02.118Z,95563.81
2023-02-16T19:13:05.146Z,95565.19
2023-02-16T19:15:08.345Z,95558.44
2023-02-16T19:17:10.758Z,95560.81
2023-02-16T19:19:12.422Z,95562.50
2023-02-16T19:21:15.295Z,95559.16
2023-02-16T19:23:16.895Z,95563.91
2023-02-16T19:25:21.810Z,95567.78
2023-02-16T19:27:23.451Z,95565.53
2023-02-16T19:29:25.281Z,95562.47
2023-02-16T19:31:29.159Z,95556.19
2023-02-16T19:33:31.114Z,95551.09
2023-02-16T19:35:32.831Z,95551.69
2023-02-16T19:37:34.486Z,95558.63
2023-02-16T19:39:39.107Z,95550.44
2023-02-16T19:41:44.115Z,95546.69
2023-02-16T19:43:46.087Z,95547.56
2023-02-16T19:45:47.785Z,95552.03
2023-02-16T19:47:52.346Z,95539.75
2023-02-16T19:49:53.916Z,95542.78
2023-02-16T19:51:55.742Z,95541.63
2023-02-16T19:53:58.564Z,95546.84
2023-02-16T19:56:00.382Z,95551.22
2023-02-16T19:58:02.146Z,95541.66
2023-02-16T20:00:05.869Z,95545.78
2023-02-16T20:02:07.557Z,95556.47
2023-02-16T20:04:10.171Z,95551.06
2023-02-16T20:06:17.224Z,95551.53
2023-02-16T20:08:18.761Z,95558.84
2023-02-16T20:10:20.394Z,95554.47
2023-02-16T20:12:22.043Z,95554.13
2023-02-16T20:14:23.695Z,95558.03
2023-02-16T20:16:27.079Z,95554.44
2023-02-16T20:18:28.919Z,95558.09
2023-02-16T20:20:30.533Z,95553.50
2023-02-16T20:22:32.214Z,95553.63
2023-02-16T20:24:33.837Z,95548.06
2023-02-16T20:26:41.449Z,95539.72
2023-02-16T20:28:43.077Z,95544.31
2023-02-16T20:30:45.541Z,95538.66
2023-02-16T20:32:48.436Z,95545.97
2023-02-16T20:34:50.022Z,95547.59
2023-02-16T20:36:52.176Z,95543.06
2023-02-16T20:38:53.794Z,95550.03
2023-02-16T20:40:55.383Z,95550.72
2023-02-16T20:42:57.103Z,95549.00
2023-02-16T20:44:58.713Z,95548.47
2023-02-16T20:47:00.333Z,95562.44
2023-02-16T20:49:02.083Z,95552.75
2023-02-16T20:51:05.557Z,95547.03
2023-02-16T20:53:07.244Z,95549.97
2023-02-16T20:55:09.814Z,95550.63
2023-02-16T20:57:25.818Z,95549.59
2023-02-16T20:59:28.198Z,95556.66
2023-02-16T21:01:39.070Z,95556.28
2023-02-16T21:03:41.390Z,95556.41
2023-02-16T21:05:43.011Z,95550.84
2023-02-16T21:07:45.074Z,95556.75
2023-02-16T21:09:46.706Z,95565.19
2023-02-16T21:11:48.334Z,95573.88
2023-02-16T21:13:53.171Z,95551.19
2023-02-16T21:15:54.878Z,95550.16
2023-02-16T21:17:56.604Z,95557.97
2023-02-16T21:19:58.219Z,95562.88
2023-02-16T21:22:00.015Z,95566.94
2023-02-16T21:24:01.726Z,95561.75
2023-02-16T21:26:05.595Z,95564.41
2023-02-16T21:28:07.631Z,95572.25
2023-02-16T21:30:09.647Z,95564.84
2023-02-16T21:32:11.670Z,95571.63
2023-02-16T21:34:13.385Z,95565.41
2023-02-16T21:36:21.574Z,95581.00
2023-02-16T21:38:23.141Z,95566.97
2023-02-16T21:40:44.134Z,95566.09
2023-02-16T21:42:45.780Z,95566.50
2023-02-16T21:44:49.959Z,95578.78
2023-02-16T21:46:51.581Z,95568.19
2023-02-16T21:48:55.056Z,95553.63
2023-02-16T21:51:03.279Z,95575.47
2023-02-16T21:53:05.215Z,95562.25
2023-02-16T21:55:25.683Z,95558.03
2023-02-16T21:57:27.287Z,95560.97
2023-02-16T21:59:28.846Z,95553.56
2023-02-16T22:01:32.210Z,95556.56
2023-02-16T22:03:33.944Z,95555.94
2023-02-16T22:05:36.185Z,95564.38
2023-02-16T22:07:37.772Z,95567.78
2023-02-16T22:09:39.370Z,95564.47
2023-02-16T22:11:41.554Z,95550.56
2023-02-16T22:13:43.350Z,95560.09
2023-02-16T22:15:44.932Z,95560.50
2023-02-16T22:17:49.801Z,95554.16
2023-02-16T22:19:51.337Z,95563.22
2023-02-16T22:21:52.895Z,95560.75
2023-02-16T22:23:54.931Z,95556.28
2023-02-16T22:25:56.500Z,95556.78
2023-02-16T22:27:58.080Z,95552.22
2023-02-16T22:29:59.785Z,95560.50
2023-02-16T22:32:04.256Z,95559.25
2023-02-16T22:34:08.213Z,95561.66
2023-02-16T22:36:12.890Z,95560.97
2023-02-16T22:38:14.669Z,95559.59
2023-02-16T22:40:16.632Z,95561.06
2023-02-16T22:42:18.495Z,95563.25
2023-02-16T22:44:20.177Z,95565.13
2023-02-16T22:46:22.973Z,95560.84
2023-02-16T22:48:24.634Z,95566.16
2023-02-16T22:50:26.267Z,95554.09
2023-02-16T22:52:28.295Z,95558.66
2023-02-16T22:54:29.982Z,95565.72
2023-02-16T22:56:31.990Z,95565.94
2023-02-16T22:58:33.708Z,95559.59
2023-02-16T23:00:35.436Z,95550.84
2023-02-16T23:02:37.881Z,95559.19
2023-02-16T23:04:41.181Z,95557.63
2023-02-16T23:06:45.178Z,95556.59
2023-02-16T23:08:52.100Z,95553.28
2023-02-16T23:11:00.039Z,95561.06
2023-02-16T23:13:02.079Z,95559.72
2023-02-16T23:15:03.820Z,95550.06
2023-02-16T23:17:05.413Z,95551.81
2023-02-16T23:19:07.061Z,95560.53
2023-02-16T23:21:30.141Z,95559.22
2023-02-16T23:23:31.762Z,95551.94
2023-02-16T23:25:33.348Z,95558.47
2023-02-16T23:27:35.700Z,95560.97
2023-02-16T23:29:37.353Z,95555.66
2023-02-16T23:31:40.763Z,95553.25
2023-02-16T23:33:42.619Z,95556.19
2023-02-16T23:35:44.291Z,95548.06
2023-02-16T23:37:46.761Z,95553.69
2023-02-16T23:39:48.325Z,95552.63
2023-02-16T23:41:49.945Z,95546.00
2023-02-16T23:43:51.612Z,95553.38
2023-02-16T23:45:53.550Z,95549.44
2023-02-16T23:47:55.236Z,95546.94
2023-02-16T23:49:56.837Z,95535.41
2023-02-16T23:52:01.797Z,95540.41
2023-02-16T23:54:03.536Z,95538.94
2023-02-16T23:56:06.665Z,95538.44
2023-02-16T23:58:09.989Z,95533.75
